SAS289 EKCH-EKBI
Flight info
| Callsign | SAS289 |
|---|---|
| Flight time | 0h 29m |
| Altitude | 16000 |
| Route | ODDON DCT LOKSA |
| Aircraft | A320/M-SDE3FGHIRWY/LB1 |
Departure
| Time | 2026-04-23 21:44 |
|---|---|
| Airport | Copenhagen Kastrup Airport (EKCH) |
Arrival
| Time | 2026-04-23 22:14 |
|---|---|
| Airport | Billund Airport (EKBI) |
| Time | Latitude | Longitude | Altitude | Speed | Heading |
|---|---|---|---|---|---|
| 2026-04-23 20:59 | 55.62730 | 12.64274 | 17 ft | 0 kts | 303° |
| 2026-04-23 21:31 | 55.62726 | 12.64287 | 17 ft | 4 kts | 301° |
| 2026-04-23 21:31 | 55.62715 | 12.64328 | 17 ft | 4 kts | 271° |
| 2026-04-23 21:31 | 55.62722 | 12.64359 | 18 ft | 2 kts | 207° |
| 2026-04-23 21:31 | 55.62709 | 12.64347 | 17 ft | 4 kts | 205° |
| 2026-04-23 21:32 | 55.62684 | 12.64329 | 19 ft | 4 kts | 202° |
| 2026-04-23 21:32 | 55.62662 | 12.64313 | 17 ft | 1 kts | 201° |
| 2026-04-23 21:35 | 55.62660 | 12.64311 | 17 ft | 2 kts | 201° |
| 2026-04-23 21:35 | 55.62628 | 12.64288 | 18 ft | 6 kts | 206° |
| 2026-04-23 21:36 | 55.62566 | 12.64216 | 18 ft | 4 kts | 213° |
| 2026-04-23 21:36 | 55.62538 | 12.64197 | 17 ft | 7 kts | 188° |
| 2026-04-23 21:36 | 55.62497 | 12.64264 | 18 ft | 8 kts | 123° |
| 2026-04-23 21:37 | 55.62465 | 12.64343 | 18 ft | 9 kts | 127° |
| 2026-04-23 21:37 | 55.62402 | 12.64448 | 18 ft | 13 kts | 164° |
| 2026-04-23 21:37 | 55.62320 | 12.64415 | 17 ft | 12 kts | 195° |
| 2026-04-23 21:37 | 55.62244 | 12.64390 | 16 ft | 11 kts | 174° |
| 2026-04-23 21:38 | 55.62158 | 12.64421 | 17 ft | 14 kts | 169° |
| 2026-04-23 21:38 | 55.62067 | 12.64451 | 17 ft | 12 kts | 169° |
| 2026-04-23 21:38 | 55.61990 | 12.64477 | 17 ft | 11 kts | 169° |
| 2026-04-23 21:38 | 55.61923 | 12.64500 | 19 ft | 9 kts | 169° |
| 2026-04-23 21:39 | 55.61850 | 12.64525 | 19 ft | 15 kts | 169° |
| 2026-04-23 21:39 | 55.61754 | 12.64556 | 18 ft | 13 kts | 169° |
| 2026-04-23 21:39 | 55.61670 | 12.64561 | 17 ft | 11 kts | 199° |
| 2026-04-23 21:39 | 55.61607 | 12.64494 | 18 ft | 10 kts | 213° |
| 2026-04-23 21:40 | 55.61555 | 12.64431 | 18 ft | 8 kts | 213° |
| 2026-04-23 21:40 | 55.61503 | 12.64371 | 17 ft | 12 kts | 214° |
| 2026-04-23 21:40 | 55.61421 | 12.64275 | 19 ft | 15 kts | 213° |
| 2026-04-23 21:40 | 55.61339 | 12.64182 | 17 ft | 13 kts | 213° |
| 2026-04-23 21:41 | 55.61268 | 12.64100 | 18 ft | 11 kts | 213° |
| 2026-04-23 21:41 | 55.61205 | 12.64028 | 19 ft | 10 kts | 213° |
| 2026-04-23 21:41 | 55.61151 | 12.63966 | 17 ft | 9 kts | 213° |
| 2026-04-23 21:41 | 55.61102 | 12.63910 | 17 ft | 9 kts | 213° |
| 2026-04-23 21:42 | 55.61040 | 12.63838 | 17 ft | 14 kts | 213° |
| 2026-04-23 21:42 | 55.60961 | 12.63748 | 20 ft | 13 kts | 213° |
| 2026-04-23 21:42 | 55.60892 | 12.63668 | 18 ft | 12 kts | 213° |
| 2026-04-23 21:42 | 55.60808 | 12.63592 | 17 ft | 13 kts | 189° |
| 2026-04-23 21:43 | 55.60741 | 12.63673 | 18 ft | 11 kts | 131° |
| 2026-04-23 21:43 | 55.60695 | 12.63768 | 18 ft | 9 kts | 130° |
| 2026-04-23 21:43 | 55.60671 | 12.63848 | 20 ft | 6 kts | 90° |
| 2026-04-23 21:43 | 55.60700 | 12.63911 | 19 ft | 11 kts | 40° |
| 2026-04-23 21:44 | 55.60914 | 12.64238 | 18 ft | 78 kts | 41° |
| 2026-04-23 21:44 | 55.61493 | 12.65132 | 17 ft | 140 kts | 41° |
| 2026-04-23 21:44 | 55.62308 | 12.66395 | 312 ft | 162 kts | 40° |
| 2026-04-23 21:44 | 55.63144 | 12.67721 | 1029 ft | 161 kts | 39° |
| 2026-04-23 21:45 | 55.63967 | 12.69037 | 1804 ft | 157 kts | 36° |
| 2026-04-23 21:45 | 55.64926 | 12.69966 | 2397 ft | 161 kts | 12° |
| 2026-04-23 21:45 | 55.66084 | 12.70224 | 2796 ft | 177 kts | 1° |
| 2026-04-23 21:45 | 55.67372 | 12.70263 | 3200 ft | 192 kts | 358° |
| 2026-04-23 21:46 | 55.68754 | 12.70176 | 3647 ft | 204 kts | 356° |
| 2026-04-23 21:46 | 55.70200 | 12.70007 | 4180 ft | 217 kts | 355° |
| 2026-04-23 21:46 | 55.71770 | 12.69800 | 4713 ft | 234 kts | 355° |
| 2026-04-23 21:46 | 55.73437 | 12.69567 | 5367 ft | 247 kts | 355° |
| 2026-04-23 21:47 | 55.75182 | 12.69317 | 6170 ft | 253 kts | 355° |
| 2026-04-23 21:47 | 55.76932 | 12.69111 | 7137 ft | 252 kts | 356° |
| 2026-04-23 21:47 | 55.78682 | 12.68912 | 8013 ft | 254 kts | 355° |
| 2026-04-23 21:47 | 55.80427 | 12.68289 | 8786 ft | 259 kts | 339° |
| 2026-04-23 21:48 | 55.82007 | 12.66708 | 9645 ft | 263 kts | 324° |
| 2026-04-23 21:48 | 55.83301 | 12.64370 | 10432 ft | 270 kts | 308° |
| 2026-04-23 21:48 | 55.84073 | 12.61282 | 11224 ft | 278 kts | 290° |
| 2026-04-23 21:48 | 55.84628 | 12.57967 | 11928 ft | 284 kts | 293° |
| 2026-04-23 21:49 | 55.85343 | 12.54597 | 12293 ft | 301 kts | 296° |
| 2026-04-23 21:49 | 55.86181 | 12.51108 | 12517 ft | 321 kts | 297° |
| 2026-04-23 21:49 | 55.87111 | 12.47330 | 13032 ft | 331 kts | 296° |
| 2026-04-23 21:49 | 55.88024 | 12.43539 | 13692 ft | 336 kts | 296° |
| 2026-04-23 21:50 | 55.88890 | 12.39625 | 14316 ft | 343 kts | 290° |
| 2026-04-23 21:50 | 55.89281 | 12.35399 | 14915 ft | 352 kts | 275° |
| 2026-04-23 21:50 | 55.89045 | 12.30983 | 15540 ft | 363 kts | 261° |
| 2026-04-23 21:50 | 55.88147 | 12.26653 | 16170 ft | 374 kts | 246° |
| 2026-04-23 21:51 | 55.86883 | 12.22560 | 16783 ft | 379 kts | 245° |
| 2026-04-23 21:51 | 55.85600 | 12.18437 | 17372 ft | 383 kts | 245° |
| 2026-04-23 21:51 | 55.84303 | 12.14269 | 17918 ft | 387 kts | 245° |
| 2026-04-23 21:51 | 55.82996 | 12.10066 | 18090 ft | 389 kts | 245° |
| 2026-04-23 21:52 | 55.81680 | 12.05839 | 18512 ft | 392 kts | 245° |
| 2026-04-23 21:52 | 55.80354 | 12.01580 | 19056 ft | 394 kts | 245° |
| 2026-04-23 21:52 | 55.79026 | 11.97315 | 19589 ft | 397 kts | 245° |
| 2026-04-23 21:52 | 55.77684 | 11.93015 | 20001 ft | 399 kts | 245° |
| 2026-04-23 21:53 | 55.76350 | 11.88749 | 20109 ft | 399 kts | 245° |
| 2026-04-23 21:53 | 55.74984 | 11.84388 | 20112 ft | 398 kts | 245° |
| 2026-04-23 21:53 | 55.73658 | 11.80162 | 20123 ft | 397 kts | 245° |
| 2026-04-23 21:53 | 55.72314 | 11.75885 | 20127 ft | 397 kts | 245° |
| 2026-04-23 21:54 | 55.70970 | 11.71608 | 20131 ft | 397 kts | 245° |
| 2026-04-23 21:54 | 55.69623 | 11.67338 | 20137 ft | 397 kts | 244° |
| 2026-04-23 21:54 | 55.68271 | 11.63068 | 20136 ft | 397 kts | 244° |
| 2026-04-23 21:54 | 55.66916 | 11.58806 | 20141 ft | 397 kts | 244° |
| 2026-04-23 21:55 | 55.65561 | 11.54546 | 20142 ft | 397 kts | 244° |
| 2026-04-23 21:55 | 55.64207 | 11.50290 | 20145 ft | 397 kts | 244° |
| 2026-04-23 21:55 | 55.62855 | 11.46041 | 20157 ft | 397 kts | 244° |
| 2026-04-23 21:55 | 55.61586 | 11.41726 | 20156 ft | 393 kts | 251° |
| 2026-04-23 21:56 | 55.60753 | 11.37159 | 20149 ft | 388 kts | 262° |
| 2026-04-23 21:56 | 55.60403 | 11.32464 | 20149 ft | 383 kts | 271° |
| 2026-04-23 21:56 | 55.60264 | 11.27754 | 20148 ft | 384 kts | 271° |
| 2026-04-23 21:56 | 55.60116 | 11.23044 | 20148 ft | 384 kts | 271° |
| 2026-04-23 21:57 | 55.59960 | 11.18335 | 20144 ft | 383 kts | 270° |
| 2026-04-23 21:57 | 55.59800 | 11.13626 | 20147 ft | 383 kts | 270° |
| 2026-04-23 21:57 | 55.59641 | 11.08919 | 20152 ft | 384 kts | 270° |
| 2026-04-23 21:57 | 55.59481 | 11.04225 | 20029 ft | 379 kts | 270° |
| 2026-04-23 21:58 | 55.59322 | 10.99649 | 19790 ft | 369 kts | 270° |
| 2026-04-23 21:58 | 55.59167 | 10.95171 | 19552 ft | 361 kts | 270° |
| 2026-04-23 21:58 | 55.59014 | 10.90758 | 19314 ft | 359 kts | 270° |
| 2026-04-23 21:58 | 55.58862 | 10.86373 | 19036 ft | 355 kts | 270° |
| 2026-04-23 21:59 | 55.58710 | 10.82023 | 18605 ft | 354 kts | 270° |
| 2026-04-23 21:59 | 55.58555 | 10.77681 | 18118 ft | 353 kts | 270° |
| 2026-04-23 21:59 | 55.58395 | 10.73365 | 17671 ft | 351 kts | 270° |
| 2026-04-23 22:00 | 55.58172 | 10.64831 | 16776 ft | 343 kts | 278° |
| 2026-04-23 22:00 | 55.58478 | 10.60678 | 16338 ft | 339 kts | 282° |
| 2026-04-23 22:00 | 55.58823 | 10.56568 | 15903 ft | 337 kts | 282° |
| 2026-04-23 22:00 | 55.59161 | 10.52464 | 15469 ft | 336 kts | 282° |
| 2026-04-23 22:01 | 55.59493 | 10.48390 | 15042 ft | 335 kts | 282° |
| 2026-04-23 22:01 | 55.59821 | 10.44325 | 14603 ft | 334 kts | 281° |
| 2026-04-23 22:01 | 55.60148 | 10.40260 | 14167 ft | 333 kts | 282° |
| 2026-04-23 22:01 | 55.60472 | 10.36216 | 13702 ft | 332 kts | 281° |
| 2026-04-23 22:02 | 55.60793 | 10.32230 | 13269 ft | 330 kts | 281° |
| 2026-04-23 22:02 | 55.61114 | 10.28228 | 12809 ft | 328 kts | 282° |
| 2026-04-23 22:02 | 55.61432 | 10.24236 | 12368 ft | 326 kts | 281° |
| 2026-04-23 22:02 | 55.61745 | 10.20275 | 11926 ft | 324 kts | 281° |
| 2026-04-23 22:03 | 55.62053 | 10.16337 | 11484 ft | 322 kts | 281° |
| 2026-04-23 22:03 | 55.62359 | 10.12422 | 11028 ft | 321 kts | 281° |
| 2026-04-23 22:03 | 55.62664 | 10.08527 | 10589 ft | 319 kts | 281° |
| 2026-04-23 22:03 | 55.62964 | 10.04660 | 10244 ft | 314 kts | 281° |
| 2026-04-23 22:04 | 55.63252 | 10.00908 | 10125 ft | 302 kts | 281° |
| 2026-04-23 22:04 | 55.63529 | 9.97294 | 10000 ft | 291 kts | 282° |
| 2026-04-23 22:04 | 55.63795 | 9.93810 | 9814 ft | 282 kts | 282° |
| 2026-04-23 22:04 | 55.64055 | 9.90380 | 9411 ft | 281 kts | 282° |
| 2026-04-23 22:05 | 55.64315 | 9.86972 | 9020 ft | 280 kts | 282° |
| 2026-04-23 22:05 | 55.64575 | 9.83581 | 8662 ft | 276 kts | 282° |
| 2026-04-23 22:05 | 55.64832 | 9.80209 | 8245 ft | 277 kts | 282° |
| 2026-04-23 22:05 | 55.65087 | 9.76854 | 7857 ft | 271 kts | 282° |
| 2026-04-23 22:06 | 55.65326 | 9.73627 | 7502 ft | 258 kts | 283° |
| 2026-04-23 22:06 | 55.65550 | 9.70568 | 7169 ft | 246 kts | 283° |
| 2026-04-23 22:06 | 55.65767 | 9.67604 | 6844 ft | 235 kts | 283° |
| 2026-04-23 22:06 | 55.65974 | 9.64779 | 6527 ft | 227 kts | 284° |
| 2026-04-23 22:07 | 55.66175 | 9.62053 | 6204 ft | 219 kts | 284° |
| 2026-04-23 22:07 | 55.66576 | 9.59563 | 5921 ft | 204 kts | 303° |
| 2026-04-23 22:07 | 55.67074 | 9.58200 | 5742 ft | 194 kts | 315° |
| 2026-04-23 22:07 | 55.68447 | 9.56315 | 5301 ft | 184 kts | 337° |
| 2026-04-23 22:08 | 55.69236 | 9.55749 | 5030 ft | 186 kts | 341° |
| 2026-04-23 22:08 | 55.70441 | 9.54857 | 4575 ft | 184 kts | 336° |
| 2026-04-23 22:08 | 55.71573 | 9.53814 | 4323 ft | 179 kts | 330° |
| 2026-04-23 22:08 | 55.72559 | 9.52477 | 4077 ft | 178 kts | 321° |
| 2026-04-23 22:09 | 55.73478 | 9.50978 | 3800 ft | 180 kts | 319° |
| 2026-04-23 22:09 | 55.74388 | 9.49493 | 3557 ft | 176 kts | 315° |
| 2026-04-23 22:09 | 55.74901 | 9.47541 | 3340 ft | 178 kts | 284° |
| 2026-04-23 22:09 | 55.74937 | 9.45361 | 3102 ft | 178 kts | 269° |
| 2026-04-23 22:10 | 55.74844 | 9.43197 | 2892 ft | 173 kts | 271° |
| 2026-04-23 22:10 | 55.74763 | 9.41093 | 2699 ft | 168 kts | 271° |
| 2026-04-23 22:10 | 55.74703 | 9.39067 | 2527 ft | 159 kts | 272° |
| 2026-04-23 22:10 | 55.74651 | 9.37145 | 2341 ft | 150 kts | 274° |
| 2026-04-23 22:11 | 55.74608 | 9.35330 | 2168 ft | 145 kts | 274° |
| 2026-04-23 22:11 | 55.74561 | 9.33549 | 1952 ft | 143 kts | 274° |
| 2026-04-23 22:11 | 55.74521 | 9.31792 | 1750 ft | 141 kts | 275° |
| 2026-04-23 22:11 | 55.74482 | 9.30070 | 1595 ft | 138 kts | 275° |
| 2026-04-23 22:12 | 55.74430 | 9.28369 | 1401 ft | 136 kts | 272° |
| 2026-04-23 22:12 | 55.74379 | 9.26705 | 1200 ft | 134 kts | 272° |
| 2026-04-23 22:12 | 55.74332 | 9.25060 | 1022 ft | 132 kts | 270° |
| 2026-04-23 22:12 | 55.74292 | 9.23443 | 875 ft | 131 kts | 271° |
| 2026-04-23 22:13 | 55.74255 | 9.21833 | 664 ft | 130 kts | 269° |
| 2026-04-23 22:13 | 55.74191 | 9.20223 | 530 ft | 132 kts | 268° |
| 2026-04-23 22:13 | 55.74141 | 9.18617 | 376 ft | 127 kts | 269° |
| 2026-04-23 22:13 | 55.74091 | 9.17065 | 252 ft | 118 kts | 269° |
| 2026-04-23 22:14 | 55.74055 | 9.15846 | 241 ft | 77 kts | 266° |
| 2026-04-23 22:14 | 55.74035 | 9.15200 | 246 ft | 28 kts | 267° |
| 2026-04-23 22:14 | 55.74025 | 9.14892 | 245 ft | 18 kts | 267° |
| 2026-04-23 22:14 | 55.74017 | 9.14676 | 246 ft | 17 kts | 266° |
| 2026-04-23 22:15 | 55.74037 | 9.14501 | 243 ft | 13 kts | 329° |
| 2026-04-23 22:15 | 55.74119 | 9.14492 | 242 ft | 12 kts | 4° |
| 2026-04-23 22:15 | 55.74165 | 9.14489 | 241 ft | 6 kts | 355° |
| 2026-04-23 22:15 | 55.74209 | 9.14484 | 241 ft | 9 kts | 356° |
| 2026-04-23 22:16 | 55.74279 | 9.14475 | 241 ft | 10 kts | 356° |
| 2026-04-23 22:16 | 55.74350 | 9.14470 | 241 ft | 10 kts | 358° |
| 2026-04-23 22:16 | 55.74417 | 9.14469 | 241 ft | 8 kts | 9° |
| 2026-04-23 22:16 | 55.74442 | 9.14537 | 241 ft | 6 kts | 83° |
| 2026-04-23 22:17 | 55.74444 | 9.14616 | 241 ft | 8 kts | 88° |
| 2026-04-23 22:17 | 55.74446 | 9.14720 | 241 ft | 8 kts | 88° |
| 2026-04-23 22:17 | 55.74479 | 9.14752 | 241 ft | 7 kts | 346° |
| 2026-04-23 22:17 | 55.74518 | 9.14744 | 241 ft | 4 kts | 357° |
| 2026-04-23 22:18 | 55.74533 | 9.14743 | 241 ft | 0 kts | 358° |
| 2026-04-23 22:18 | 55.74535 | 9.14743 | 241 ft | 0 kts | 358° |